logo
Search for airport 
image banner adimage banner adimage banner ad
image banner ad

ED3170 - Matzerath

Located in , Germany

ICAO - , IATA -

Data provided by Airmate  

General information

Coordinates: N51°4'40" E6°16'37"
Elevation is 300 feet MSL.
 
View others Airports in North Rhine-Westphalia

Operational data

Special qualification required
Current time UTC:
Current local time:
Weather at : ETNG - Geilenkirchen ( 21 km )
METAR: ETNG 180250Z 14003KT CAVOK 16/13 Q1013
TAF: TAF ETNG 180200Z 1803/1818 VRB02KT CAVOK PROB30 TEMPO 1803/1808 -SHRA SCT045TCU BECMG 1808/1810 BKN030 TEMPO 1810/1818 4000 SHRA BKN020CB PROB30 TEMPO 1811/1818 VBR15G35KT 2000 TSRA TSGR BKN014CB
View NOTAMs / SUP AIP / TFR affecting this airport [VIEW]
Communications frequencies: [VIEW]

Runways:

Airport contact information

Address: Germany

Satellite view of ED3170